Beaver State — WQVZ — position and weather

sailwx.info

Track history (hours):
 
Tides and Currents Weather Stations Pressure Air Temp Water Temp Dewpoint Dewpoint Depression Visibility Wind Speed Wind Dir Waves Ship Positions

Beaver State

Owner: MARITIME ADMINISTRATION, WASHINGTON, DC. More information available from US FCC via Universal Licensing System and Coast Guard Vessel Documentation Center.

Last reported at 2016-May-07 15:15 UTC. Time now 2016-May-25 13:08 UTC.
Position N 43°45' W 128°49'.
Warning: this ship's position is 17 days out of date.

Length 203 m; draft 9 m.

Type: Ship. MMSI: 368949000.

Date/timePositionNaut miles runAvg speedWind from/ knotsBaromVisibWave heightAir tempDewpointWater temp
2016-May-07 15:15N 43°45' W 128°49'1515.0
2016-May-07 14:15N 43°41' W 128°29'2413.2
2016-May-07 12:26N 43°49' W 127°58'1815.6
2016-May-07 11:16N 44°05' W 127°45'4215.4
2016-May-07 08:33N 44°43' W 127°20'1715.3
2016-May-07 07:26N 44°58' W 127°10'1415.3
2016-May-07 06:33N 45°11' W 127°02'4413.9
2016-May-07 03:24N 45°29' W 126°05'1113.7
2016-May-07 02:33N 45°34' W 125°50'1515.2
2016-May-07 01:33N 45°38' W 125°30'1515.5
2016-May-07 00:33N 45°44' W 125°09'1615.8
2016-May-06 23:34N 45°52' W 124°50'1615.9
2016-May-06 22:33N 46°01' W 124°30'1515.3
2016-May-06 21:33N 46°09' W 124°12'1010.0
2016-May-06 20:34N 46°15' W 124°00'1010.4
2016-May-06 19:33N 46°10' W 124°13'1414.4
2016-May-06 18:34N 46°06' W 124°33'1918.8
2016-May-06 17:34N 46°02' W 124°60'1919.4
2016-May-06 16:33N 45°60' W 125°28'2110.5
2016-May-06 14:33N 46°04' W 125°57'9 9.3
2016-May-06 13:32N 46°03' W 126°11'9 9.3
2016-May-06 12:33N 46°04' W 126°24'9 9.2
2016-May-06 11:33N 46°06' W 126°37'6 4.8
2016-May-06 10:24N 46°06' W 126°45'11 8.6
2016-May-06 09:06N 46°03' W 126°30'16 8.7
2016-May-06 07:17N 46°02' W 126°07'6 8.8
2016-May-06 06:33N 46°01' W 125°58'9 8.7
2016-May-06 05:33N 46°01' W 125°45'9 8.5
2016-May-06 04:33N 46°01' W 125°33'9 9.0
2016-May-06 03:33N 46°03' W 125°20'9 8.9
2016-May-06 02:33N 46°05' W 125°08'9 8.8
2016-May-06 01:33N 46°06' W 124°55'1413.9
2016-May-06 00:33N 46°08' W 124°35'1312.7
2016-May-05 23:33N 46°10' W 124°17'1212.6
2016-May-05 22:34N 46°15' W 124°01'1111.1
2016-May-05 21:34N 46°13' W 123°45'1312.8
2016-May-05 20:34N 46°15' W 123°27'1010.4
2016-May-05 19:34N 46°10' W 123°14'1413.9
2016-May-05 18:34N 46°05' W 122°55'1313.2
2016-May-05 17:33N 45°53' W 122°48'1414.5
2016-May-05 16:33N 45°39' W 122°46'5 4.9
2016-May-05 15:32N 45°34' W 122°43'0 0.0
2016-May-05 14:33N 45°34' W 122°43'0 0.0
2016-May-05 13:30N 45°34' W 122°43'0 0.0
2016-May-05 12:30N 45°34' W 122°43'0 0.0
2016-May-05 11:24N 45°34' W 122°43'0 0.0
2016-May-05 10:33N 45°34' W 122°43'0 0.0
2016-May-05 09:33N 45°34' W 122°43'0 0.0
2016-May-05 08:33N 45°34' W 122°43'0 0.0
2016-May-05 07:29N 45°34' W 122°43'0 0.0
2016-May-05 06:33N 45°34' W 122°43'0 0.0
2016-May-05 05:24N 45°34' W 122°43'0 0.0
2016-May-05 04:29N 45°34' W 122°43'0 0.0
2016-May-05 03:33N 45°34' W 122°43'0 0.0
2016-May-05 02:32N 45°34' W 122°43'0 0.0
2016-May-05 01:33N 45°34' W 122°43'0 0.0
2016-May-05 00:33N 45°34' W 122°43'0 0.0
2016-May-04 23:30N 45°34' W 122°43'0 0.0
2016-May-04 22:26N 45°34' W 122°43'0 0.0
2016-May-04 21:32N 45°34' W 122°43'0 0.0
2016-May-04 20:32N 45°34' W 122°43'0 0.0
2016-May-04 19:32N 45°34' W 122°43'0 0.0
2016-May-04 18:32N 45°34' W 122°43'0 0.0
2016-May-04 17:32N 45°34' W 122°43'0 0.0
2016-May-04 16:29N 45°34' W 122°43'0 0.0
2016-May-04 15:29N 45°34' W 122°43'0 0.0
2016-May-04 14:32N 45°34' W 122°43'0 0.0
2016-May-04 13:29N 45°34' W 122°43'0 0.0
2016-May-04 12:23N 45°34' W 122°43'0 0.0
2016-May-04 11:32N 45°34' W 122°43'0 0.0
2016-May-04 10:32N 45°34' W 122°43'0 0.0
2016-May-04 09:29N 45°34' W 122°43'0 0.0
2016-May-04 08:32N 45°34' W 122°43'0 0.0
2016-May-04 07:29N 45°34' W 122°43'0 0.0
2016-May-04 06:29N 45°34' W 122°43'0 0.0
2016-May-04 05:32N 45°34' W 122°43'0 0.0
2016-May-04 04:29N 45°34' W 122°43'0 0.0
2016-May-04 03:29N 45°34' W 122°43'0 0.0
2016-May-04 02:29N 45°34' W 122°43'0 0.0
2016-May-04 01:33N 45°34' W 122°43'0 0.0
2016-May-04 00:29N 45°34' W 122°43'0 0.0
2016-May-03 23:29N 45°34' W 122°43'0 0.0
2016-May-03 22:29N 45°34' W 122°43'0 0.0
2016-May-03 21:29N 45°34' W 122°43'0 0.0
2016-May-03 20:26N 45°34' W 122°43'0 0.0
2016-May-03 19:32N 45°34' W 122°43'0 0.0
2016-May-03 18:32N 45°34' W 122°43'0 0.0
2016-May-03 17:32N 45°34' W 122°43'0 0.0
2016-May-03 16:32N 45°34' W 122°43'0 0.0
2016-May-03 15:32N 45°34' W 122°43'0 0.0
2016-May-03 14:32N 45°34' W 122°43'0 0.0
2016-May-03 13:32N 45°34' W 122°43'0 0.0
2016-May-03 12:32N 45°34' W 122°43'0 0.0
2016-May-03 11:32N 45°34' W 122°43'0 0.0
2016-May-03 10:26N 45°34' W 122°43'0 0.0
2016-May-03 09:32N 45°34' W 122°43'0 0.0
2016-May-03 08:23N 45°34' W 122°43'0 0.0
2016-May-03 07:32N 45°34' W 122°43'0 0.0
2016-May-03 06:32N 45°34' W 122°43'0 0.0
2016-May-03 05:20N 45°34' W 122°43'0 0.0
2016-May-03 04:23N 45°34' W 122°43'0 0.0
2016-May-03 02:17N 45°34' W 122°43'0 0.0
2016-May-03 01:23N 45°34' W 122°43'0 0.0
2016-May-03 00:32N 45°34' W 122°43'0 0.0
2016-May-02 23:26N 45°34' W 122°43'0 0.0
2016-May-02 22:32N 45°34' W 122°43'0 0.0
2016-May-02 21:26N 45°34' W 122°43'0 0.0
2016-May-02 20:26N 45°34' W 122°43'0 0.0
2016-May-02 19:31N 45°34' W 122°43'0 0.0
2016-May-02 18:22N 45°34' W 122°43'0 0.0
2016-May-02 17:13N 45°34' W 122°43'0 0.0
2016-May-02 16:31N 45°34' W 122°43'0 0.0
2016-May-02 15:31N 45°34' W 122°43'0 0.0
2016-May-02 14:31N 45°34' W 122°43'0 0.0
2016-May-02 13:31N 45°34' W 122°43'0 0.0
2016-May-02 12:31N 45°34' W 122°43'0 0.0
2016-May-02 11:31N 45°34' W 122°43'0 0.0
2016-May-02 10:25N 45°34' W 122°43'0 0.0
2016-May-02 09:28N 45°34' W 122°43'0 0.0
2016-May-02 08:31N 45°34' W 122°43'0 0.0
2016-May-02 07:31N 45°34' W 122°43'0 0.0
2016-May-02 06:31N 45°34' W 122°43'0 0.0
2016-May-02 05:28N 45°34' W 122°43'0 0.0
2016-May-02 04:31N 45°34' W 122°43'0 0.0
2016-May-02 03:31N 45°34' W 122°43'0 0.0
2016-May-02 02:31N 45°34' W 122°43'0 0.0
2016-May-02 01:31N 45°34' W 122°43'0 0.0
2016-May-02 00:31N 45°34' W 122°43'0 0.0
2016-May-01 23:31N 45°34' W 122°43'0 0.0
2016-May-01 22:31N 45°34' W 122°43'0 0.0
2016-May-01 21:32N 45°34' W 122°43'0 0.0
2016-May-01 20:29N 45°34' W 122°43'0 0.0
2016-May-01 19:33N 45°34' W 122°43'0 0.0
2016-May-01 18:33N 45°34' W 122°43'0 0.0
2016-May-01 17:33N 45°34' W 122°43'0 0.0
2016-May-01 16:33N 45°34' W 122°43'0 0.0
2016-May-01 15:33N 45°34' W 122°43'0 0.0
2016-May-01 14:33N 45°34' W 122°43'0 0.0
2016-May-01 13:33N 45°34' W 122°43'0 0.0
2016-May-01 12:33N 45°34' W 122°43'0 0.0
2016-May-01 11:27N 45°34' W 122°43'0 0.0
2016-May-01 10:27N 45°34' W 122°43'0 0.0
2016-May-01 09:30N 45°34' W 122°43'0 0.0
2016-May-01 08:21N 45°34' W 122°43'0 0.0
2016-May-01 07:27N 45°34' W 122°43'0 0.0
2016-May-01 06:21N 45°34' W 122°43'0 0.0
2016-May-01 03:06N 45°34' W 122°43'0 0.0
2016-May-01 02:15N 45°34' W 122°43'0 0.0
2016-May-01 01:33N 45°34' W 122°43'0 0.0
2016-May-01 00:24N 45°34' W 122°43'0 0.0
2016-Apr-30 23:33N 45°34' W 122°43'0 0.0
2016-Apr-30 22:33N 45°34' W 122°43'0 0.0
2016-Apr-30 21:27N 45°34' W 122°43'0 0.0
2016-Apr-30 20:27N 45°34' W 122°43'0 0.0
2016-Apr-30 19:33N 45°34' W 122°43'0 0.0
2016-Apr-30 18:27N 45°34' W 122°43'0 0.0
2016-Apr-30 17:33N 45°34' W 122°43'0 0.0
2016-Apr-30 16:33N 45°34' W 122°43'0 0.0
2016-Apr-30 15:27N 45°34' W 122°43'0 0.0
2016-Apr-30 14:33N 45°34' W 122°43'0 0.0
2016-Apr-30 13:15N 45°34' W 122°43'0 0.0
2016-Apr-30 12:21N 45°34' W 122°43'0 0.0
2016-Apr-30 11:33N 45°34' W 122°43'0 0.0
2016-Apr-30 10:27N 45°34' W 122°43'0 0.0
2016-Apr-30 09:27N 45°34' W 122°43'0 0.0
2016-Apr-30 08:33N 45°34' W 122°43'0 0.0
2016-Apr-30 07:33N 45°34' W 122°43'0 0.0
2016-Apr-30 06:33N 45°34' W 122°43'0 0.0
2016-Apr-30 05:33N 45°34' W 122°43'0 0.0
2016-Apr-30 04:33N 45°34' W 122°43'0 0.0
2016-Apr-30 03:24N 45°34' W 122°43'0 0.0
2016-Apr-30 02:26N 45°34' W 122°43'0 0.0
2016-Apr-30 01:33N 45°34' W 122°43'0 0.0
2016-Apr-30 00:33N 45°34' W 122°43'0 0.0
2016-Apr-29 23:30N 45°34' W 122°43'0 0.0
2016-Apr-29 22:32N 45°34' W 122°43'0 0.0
2016-Apr-29 21:32N 45°34' W 122°43'0 0.0
2016-Apr-29 20:33N 45°34' W 122°43'0 0.0
2016-Apr-29 19:33N 45°34' W 122°43'0 0.0
2016-Apr-29 18:33N 45°34' W 122°43'0 0.0
2016-Apr-29 17:32N 45°34' W 122°43'0 0.0
2016-Apr-29 16:23N 45°34' W 122°43'0 0.0
2016-Apr-29 15:32N 45°34' W 122°43'0 0.0
2016-Apr-29 14:29N 45°34' W 122°43'0 0.0
2016-Apr-29 13:32N 45°34' W 122°43'0 0.0
2016-Apr-29 12:29N 45°34' W 122°43'0 0.0
2016-Apr-29 11:26N 45°34' W 122°43'0 0.0
2016-Apr-29 10:32N 45°34' W 122°43'0 0.0
2016-Apr-29 09:29N 45°34' W 122°43'0 0.0
2016-Apr-29 08:29N 45°34' W 122°43'0 0.0
2016-Apr-29 07:32N 45°34' W 122°43'0 0.0
2016-Apr-29 06:32N 45°34' W 122°43'0 0.0
2016-Apr-29 05:29N 45°34' W 122°43'0 0.0
2016-Apr-29 04:29N 45°34' W 122°43'0 0.0
2016-Apr-29 03:26N 45°34' W 122°43'0 0.0
2016-Apr-29 02:30N 45°34' W 122°43'0 0.0
2016-Apr-29 01:32N 45°34' W 122°43'0 0.0
2016-Apr-29 00:32N 45°34' W 122°43'0 0.0
2016-Apr-28 23:32N 45°34' W 122°43'0 0.0
2016-Apr-28 22:32N 45°34' W 122°43'0 0.0
2016-Apr-28 21:29N 45°34' W 122°43'0 0.0
2016-Apr-28 20:29N 45°34' W 122°43'0 0.0
2016-Apr-28 19:29N 45°34' W 122°43'0 0.0
2016-Apr-28 18:23N 45°34' W 122°43'0 0.0
2016-Apr-28 17:29N 45°34' W 122°43'0 0.0
2016-Apr-28 16:32N 45°34' W 122°43'0 0.0
2016-Apr-28 15:29N 45°34' W 122°43'0 0.0
2016-Apr-28 14:23N 45°34' W 122°43'0 0.0
2016-Apr-28 13:32N 45°34' W 122°43'0 0.0
2016-Apr-28 12:32N 45°34' W 122°43'0 0.0
2016-Apr-28 11:29N 45°34' W 122°43'0 0.0
2016-Apr-28 10:26N 45°34' W 122°43'0 0.0
2016-Apr-28 09:32N 45°34' W 122°43'0 0.0
2016-Apr-28 08:32N 45°34' W 122°43'0 0.0
2016-Apr-28 07:29N 45°34' W 122°43'0 0.0
2016-Apr-28 06:23N 45°34' W 122°43'0 0.0
2016-Apr-28 05:29N 45°34' W 122°43'0 0.0
2016-Apr-28 04:32N 45°34' W 122°43'0 0.0
2016-Apr-28 03:23N 45°34' W 122°43'0 0.0
2016-Apr-28 02:23N 45°34' W 122°43'0 0.0
2016-Apr-28 01:29N 45°34' W 122°43'0 0.0
2016-Apr-28 00:23N 45°34' W 122°43'0 0.0
2016-Apr-27 23:32N 45°34' W 122°43'0 0.0
2016-Apr-27 22:32N 45°34' W 122°43'0 0.0
2016-Apr-27 21:23N 45°34' W 122°43'0 0.0
2016-Apr-27 20:29N 45°34' W 122°43'0 0.0
2016-Apr-27 19:29N 45°34' W 122°43'0 0.0
2016-Apr-27 18:32N 45°34' W 122°43'0 0.0
2016-Apr-27 17:32N 45°34' W 122°43'0 0.0
2016-Apr-27 16:29N 45°34' W 122°43'0 0.0
2016-Apr-27 15:29N 45°34' W 122°43'  
Track history (hours):
 
Tides and Currents Weather Stations Pressure Air Temp Water Temp Dewpoint Dewpoint Depression Visibility Wind Speed Wind Dir Waves Ship Positions

Beaver State

Owner: MARITIME ADMINISTRATION, WASHINGTON, DC. More information available from US FCC via Universal Licensing System and Coast Guard Vessel Documentation Center.

Last reported at 2016-May-07 15:15 UTC. Time now 2016-May-25 13:08 UTC.
Position N 43°45' W 128°49'.
Warning: this ship's position is 17 days out of date.

Length 203 m; draft 9 m.

Type: Ship. MMSI: 368949000.

Date/timePositionNaut miles runAvg speedWind from/ knotsBaromVisibWave heightAir tempDewpointWater temp
2016-May-07 15:15N 43°45' W 128°49'1515.0
2016-May-07 14:15N 43°41' W 128°29'2413.2
2016-May-07 12:26N 43°49' W 127°58'1815.6
2016-May-07 11:16N 44°05' W 127°45'4215.4
2016-May-07 08:33N 44°43' W 127°20'1715.3
2016-May-07 07:26N 44°58' W 127°10'1415.3
2016-May-07 06:33N 45°11' W 127°02'4413.9
2016-May-07 03:24N 45°29' W 126°05'1113.7
2016-May-07 02:33N 45°34' W 125°50'1515.2
2016-May-07 01:33N 45°38' W 125°30'1515.5
2016-May-07 00:33N 45°44' W 125°09'1615.8
2016-May-06 23:34N 45°52' W 124°50'1615.9
2016-May-06 22:33N 46°01' W 124°30'1515.3
2016-May-06 21:33N 46°09' W 124°12'1010.0
2016-May-06 20:34N 46°15' W 124°00'1010.4
2016-May-06 19:33N 46°10' W 124°13'1414.4
2016-May-06 18:34N 46°06' W 124°33'1918.8
2016-May-06 17:34N 46°02' W 124°60'1919.4
2016-May-06 16:33N 45°60' W 125°28'2110.5
2016-May-06 14:33N 46°04' W 125°57'9 9.3
2016-May-06 13:32N 46°03' W 126°11'9 9.3
2016-May-06 12:33N 46°04' W 126°24'9 9.2
2016-May-06 11:33N 46°06' W 126°37'6 4.8
2016-May-06 10:24N 46°06' W 126°45'11 8.6
2016-May-06 09:06N 46°03' W 126°30'16 8.7
2016-May-06 07:17N 46°02' W 126°07'6 8.8
2016-May-06 06:33N 46°01' W 125°58'9 8.7
2016-May-06 05:33N 46°01' W 125°45'9 8.5
2016-May-06 04:33N 46°01' W 125°33'9 9.0
2016-May-06 03:33N 46°03' W 125°20'9 8.9
2016-May-06 02:33N 46°05' W 125°08'9 8.8
2016-May-06 01:33N 46°06' W 124°55'1413.9
2016-May-06 00:33N 46°08' W 124°35'1312.7
2016-May-05 23:33N 46°10' W 124°17'1212.6
2016-May-05 22:34N 46°15' W 124°01'1111.1
2016-May-05 21:34N 46°13' W 123°45'1312.8
2016-May-05 20:34N 46°15' W 123°27'1010.4
2016-May-05 19:34N 46°10' W 123°14'1413.9
2016-May-05 18:34N 46°05' W 122°55'1313.2
2016-May-05 17:33N 45°53' W 122°48'1414.5
2016-May-05 16:33N 45°39' W 122°46'5 4.9
2016-May-05 15:32N 45°34' W 122°43'0 0.0
2016-May-05 14:33N 45°34' W 122°43'0 0.0
2016-May-05 13:30N 45°34' W 122°43'0 0.0
2016-May-05 12:30N 45°34' W 122°43'0 0.0
2016-May-05 11:24N 45°34' W 122°43'0 0.0
2016-May-05 10:33N 45°34' W 122°43'0 0.0
2016-May-05 09:33N 45°34' W 122°43'0 0.0
2016-May-05 08:33N 45°34' W 122°43'0 0.0
2016-May-05 07:29N 45°34' W 122°43'0 0.0
2016-May-05 06:33N 45°34' W 122°43'0 0.0
2016-May-05 05:24N 45°34' W 122°43'0 0.0
2016-May-05 04:29N 45°34' W 122°43'0 0.0
2016-May-05 03:33N 45°34' W 122°43'0 0.0
2016-May-05 02:32N 45°34' W 122°43'0 0.0
2016-May-05 01:33N 45°34' W 122°43'0 0.0
2016-May-05 00:33N 45°34' W 122°43'0 0.0
2016-May-04 23:30N 45°34' W 122°43'0 0.0
2016-May-04 22:26N 45°34' W 122°43'0 0.0
2016-May-04 21:32N 45°34' W 122°43'0 0.0
2016-May-04 20:32N 45°34' W 122°43'0 0.0
2016-May-04 19:32N 45°34' W 122°43'0 0.0
2016-May-04 18:32N 45°34' W 122°43'0 0.0
2016-May-04 17:32N 45°34' W 122°43'0 0.0
2016-May-04 16:29N 45°34' W 122°43'0 0.0
2016-May-04 15:29N 45°34' W 122°43'0 0.0
2016-May-04 14:32N 45°34' W 122°43'0 0.0
2016-May-04 13:29N 45°34' W 122°43'0 0.0
2016-May-04 12:23N 45°34' W 122°43'0 0.0
2016-May-04 11:32N 45°34' W 122°43'0 0.0
2016-May-04 10:32N 45°34' W 122°43'0 0.0
2016-May-04 09:29N 45°34' W 122°43'0 0.0
2016-May-04 08:32N 45°34' W 122°43'0 0.0
2016-May-04 07:29N 45°34' W 122°43'0 0.0
2016-May-04 06:29N 45°34' W 122°43'0 0.0
2016-May-04 05:32N 45°34' W 122°43'0 0.0
2016-May-04 04:29N 45°34' W 122°43'0 0.0
2016-May-04 03:29N 45°34' W 122°43'0 0.0
2016-May-04 02:29N 45°34' W 122°43'0 0.0
2016-May-04 01:33N 45°34' W 122°43'0 0.0
2016-May-04 00:29N 45°34' W 122°43'0 0.0
2016-May-03 23:29N 45°34' W 122°43'0 0.0
2016-May-03 22:29N 45°34' W 122°43'0 0.0
2016-May-03 21:29N 45°34' W 122°43'0 0.0
2016-May-03 20:26N 45°34' W 122°43'0 0.0
2016-May-03 19:32N 45°34' W 122°43'0 0.0
2016-May-03 18:32N 45°34' W 122°43'0 0.0
2016-May-03 17:32N 45°34' W 122°43'0 0.0
2016-May-03 16:32N 45°34' W 122°43'0 0.0
2016-May-03 15:32N 45°34' W 122°43'0 0.0
2016-May-03 14:32N 45°34' W 122°43'0 0.0
2016-May-03 13:32N 45°34' W 122°43'0 0.0
2016-May-03 12:32N 45°34' W 122°43'0 0.0
2016-May-03 11:32N 45°34' W 122°43'0 0.0
2016-May-03 10:26N 45°34' W 122°43'0 0.0
2016-May-03 09:32N 45°34' W 122°43'0 0.0
2016-May-03 08:23N 45°34' W 122°43'0 0.0
2016-May-03 07:32N 45°34' W 122°43'0 0.0
2016-May-03 06:32N 45°34' W 122°43'0 0.0
2016-May-03 05:20N 45°34' W 122°43'0 0.0
2016-May-03 04:23N 45°34' W 122°43'0 0.0
2016-May-03 02:17N 45°34' W 122°43'0 0.0
2016-May-03 01:23N 45°34' W 122°43'0 0.0
2016-May-03 00:32N 45°34' W 122°43'0 0.0
2016-May-02 23:26N 45°34' W 122°43'0 0.0
2016-May-02 22:32N 45°34' W 122°43'0 0.0
2016-May-02 21:26N 45°34' W 122°43'0 0.0
2016-May-02 20:26N 45°34' W 122°43'0 0.0
2016-May-02 19:31N 45°34' W 122°43'0 0.0
2016-May-02 18:22N 45°34' W 122°43'0 0.0
2016-May-02 17:13N 45°34' W 122°43'0 0.0
2016-May-02 16:31N 45°34' W 122°43'0 0.0
2016-May-02 15:31N 45°34' W 122°43'0 0.0
2016-May-02 14:31N 45°34' W 122°43'0 0.0
2016-May-02 13:31N 45°34' W 122°43'0 0.0
2016-May-02 12:31N 45°34' W 122°43'0 0.0
2016-May-02 11:31N 45°34' W 122°43'0 0.0
2016-May-02 10:25N 45°34' W 122°43'0 0.0
2016-May-02 09:28N 45°34' W 122°43'0 0.0
2016-May-02 08:31N 45°34' W 122°43'0 0.0
2016-May-02 07:31N 45°34' W 122°43'0 0.0
2016-May-02 06:31N 45°34' W 122°43'0 0.0
2016-May-02 05:28N 45°34' W 122°43'0 0.0
2016-May-02 04:31N 45°34' W 122°43'0 0.0
2016-May-02 03:31N 45°34' W 122°43'0 0.0
2016-May-02 02:31N 45°34' W 122°43'0 0.0
2016-May-02 01:31N 45°34' W 122°43'0 0.0
2016-May-02 00:31N 45°34' W 122°43'0 0.0
2016-May-01 23:31N 45°34' W 122°43'0 0.0
2016-May-01 22:31N 45°34' W 122°43'0 0.0
2016-May-01 21:32N 45°34' W 122°43'0 0.0
2016-May-01 20:29N 45°34' W 122°43'0 0.0
2016-May-01 19:33N 45°34' W 122°43'0 0.0
2016-May-01 18:33N 45°34' W 122°43'0 0.0
2016-May-01 17:33N 45°34' W 122°43'0 0.0
2016-May-01 16:33N 45°34' W 122°43'0 0.0
2016-May-01 15:33N 45°34' W 122°43'0 0.0
2016-May-01 14:33N 45°34' W 122°43'0 0.0
2016-May-01 13:33N 45°34' W 122°43'0 0.0
2016-May-01 12:33N 45°34' W 122°43'0 0.0
2016-May-01 11:27N 45°34' W 122°43'0 0.0
2016-May-01 10:27N 45°34' W 122°43'0 0.0
2016-May-01 09:30N 45°34' W 122°43'0 0.0
2016-May-01 08:21N 45°34' W 122°43'0 0.0
2016-May-01 07:27N 45°34' W 122°43'0 0.0
2016-May-01 06:21N 45°34' W 122°43'0 0.0
2016-May-01 03:06N 45°34' W 122°43'0 0.0
2016-May-01 02:15N 45°34' W 122°43'0 0.0
2016-May-01 01:33N 45°34' W 122°43'0 0.0
2016-May-01 00:24N 45°34' W 122°43'0 0.0
2016-Apr-30 23:33N 45°34' W 122°43'0 0.0
2016-Apr-30 22:33N 45°34' W 122°43'0 0.0
2016-Apr-30 21:27N 45°34' W 122°43'0 0.0
2016-Apr-30 20:27N 45°34' W 122°43'0 0.0
2016-Apr-30 19:33N 45°34' W 122°43'0 0.0
2016-Apr-30 18:27N 45°34' W 122°43'0 0.0
2016-Apr-30 17:33N 45°34' W 122°43'0 0.0
2016-Apr-30 16:33N 45°34' W 122°43'0 0.0
2016-Apr-30 15:27N 45°34' W 122°43'0 0.0
2016-Apr-30 14:33N 45°34' W 122°43'0 0.0
2016-Apr-30 13:15N 45°34' W 122°43'0 0.0
2016-Apr-30 12:21N 45°34' W 122°43'0 0.0
2016-Apr-30 11:33N 45°34' W 122°43'0 0.0
2016-Apr-30 10:27N 45°34' W 122°43'0 0.0
2016-Apr-30 09:27N 45°34' W 122°43'0 0.0
2016-Apr-30 08:33N 45°34' W 122°43'0 0.0
2016-Apr-30 07:33N 45°34' W 122°43'0 0.0
2016-Apr-30 06:33N 45°34' W 122°43'0 0.0
2016-Apr-30 05:33N 45°34' W 122°43'0 0.0
2016-Apr-30 04:33N 45°34' W 122°43'0 0.0
2016-Apr-30 03:24N 45°34' W 122°43'0 0.0
2016-Apr-30 02:26N 45°34' W 122°43'0 0.0
2016-Apr-30 01:33N 45°34' W 122°43'0 0.0
2016-Apr-30 00:33N 45°34' W 122°43'0 0.0
2016-Apr-29 23:30N 45°34' W 122°43'0 0.0
2016-Apr-29 22:32N 45°34' W 122°43'0 0.0
2016-Apr-29 21:32N 45°34' W 122°43'0 0.0
2016-Apr-29 20:33N 45°34' W 122°43'0 0.0
2016-Apr-29 19:33N 45°34' W 122°43'0 0.0
2016-Apr-29 18:33N 45°34' W 122°43'0 0.0
2016-Apr-29 17:32N 45°34' W 122°43'0 0.0
2016-Apr-29 16:23N 45°34' W 122°43'0 0.0
2016-Apr-29 15:32N 45°34' W 122°43'0 0.0
2016-Apr-29 14:29N 45°34' W 122°43'0 0.0
2016-Apr-29 13:32N 45°34' W 122°43'0 0.0
2016-Apr-29 12:29N 45°34' W 122°43'0 0.0
2016-Apr-29 11:26N 45°34' W 122°43'0 0.0
2016-Apr-29 10:32N 45°34' W 122°43'0 0.0
2016-Apr-29 09:29N 45°34' W 122°43'0 0.0
2016-Apr-29 08:29N 45°34' W 122°43'0 0.0
2016-Apr-29 07:32N 45°34' W 122°43'0 0.0
2016-Apr-29 06:32N 45°34' W 122°43'0 0.0
2016-Apr-29 05:29N 45°34' W 122°43'0 0.0
2016-Apr-29 04:29N 45°34' W 122°43'0 0.0
2016-Apr-29 03:26N 45°34' W 122°43'0 0.0
2016-Apr-29 02:30N 45°34' W 122°43'0 0.0
2016-Apr-29 01:32N 45°34' W 122°43'0 0.0
2016-Apr-29 00:32N 45°34' W 122°43'0 0.0
2016-Apr-28 23:32N 45°34' W 122°43'0 0.0
2016-Apr-28 22:32N 45°34' W 122°43'0 0.0
2016-Apr-28 21:29N 45°34' W 122°43'0 0.0
2016-Apr-28 20:29N 45°34' W 122°43'0 0.0
2016-Apr-28 19:29N 45°34' W 122°43'0 0.0
2016-Apr-28 18:23N 45°34' W 122°43'0 0.0
2016-Apr-28 17:29N 45°34' W 122°43'0 0.0
2016-Apr-28 16:32N 45°34' W 122°43'0 0.0
2016-Apr-28 15:29N 45°34' W 122°43'0 0.0
2016-Apr-28 14:23N 45°34' W 122°43'0 0.0
2016-Apr-28 13:32N 45°34' W 122°43'0 0.0
2016-Apr-28 12:32N 45°34' W 122°43'0 0.0
2016-Apr-28 11:29N 45°34' W 122°43'0 0.0
2016-Apr-28 10:26N 45°34' W 122°43'0 0.0
2016-Apr-28 09:32N 45°34' W 122°43'0 0.0
2016-Apr-28 08:32N 45°34' W 122°43'0 0.0
2016-Apr-28 07:29N 45°34' W 122°43'0 0.0
2016-Apr-28 06:23N 45°34' W 122°43'0 0.0
2016-Apr-28 05:29N 45°34' W 122°43'0 0.0
2016-Apr-28 04:32N 45°34' W 122°43'0 0.0
2016-Apr-28 03:23N 45°34' W 122°43'0 0.0
2016-Apr-28 02:23N 45°34' W 122°43'0 0.0
2016-Apr-28 01:29N 45°34' W 122°43'0 0.0
2016-Apr-28 00:23N 45°34' W 122°43'0 0.0
2016-Apr-27 23:32N 45°34' W 122°43'0 0.0
2016-Apr-27 22:32N 45°34' W 122°43'0 0.0
2016-Apr-27 21:23N 45°34' W 122°43'0 0.0
2016-Apr-27 20:29N 45°34' W 122°43'0 0.0
2016-Apr-27 19:29N 45°34' W 122°43'0 0.0
2016-Apr-27 18:32N 45°34' W 122°43'0 0.0
2016-Apr-27 17:32N 45°34' W 122°43'0 0.0
2016-Apr-27 16:29N 45°34' W 122°43'0 0.0
2016-Apr-27 15:29N 45°34' W 122°43'  

Dump ship's entire track history